Time;durP1;ratioP1;P1;durP2;ratioP2;P2;SDS_P1;SDS_P2;PMS_P1;PMS_P2;Temp;Humidity;BMP_temperature;BMP_pressure;BME280_temperature;BME280_humidity;BME280_pressure;Samples;Min_cycle;Max_cycle;Signal;HPM_P1;HPM_P2
2022/01/21 00:00:36;;;;;;;27.98;3.60;;;;;;;0.24;100.00;103471.13;5283482;28;20038;-71
2022/01/21 00:03:07;;;;;;;15.23;3.75;;;;;;;0.15;100.00;103466.94;5284491;28;20024;-71
2022/01/21 00:05:37;;;;;;;24.67;3.40;;;;;;;0.07;100.00;103466.25;5282663;28;20022;-71
2022/01/21 00:08:08;;;;;;;14.35;3.45;;;;;;;0.00;100.00;103464.66;5284461;28;20031;-71
2022/01/21 00:10:38;;;;;;;14.75;3.03;;;;;;;-0.04;100.00;103460.34;5270738;28;20039;-71
2022/01/21 00:13:18;;;;;;;20.00;4.60;;;;;;;-0.14;100.00;103456.19;5284112;28;20047;-71
2022/01/21 00:15:49;;;;;;;16.33;3.80;;;;;;;-0.27;100.00;103453.78;5271542;28;20028;-71
2022/01/21 00:18:20;;;;;;;18.50;3.03;;;;;;;-0.36;100.00;103469.78;5282173;28;20028;-72
2022/01/21 00:32:09;;;;;;;16.58;3.47;;;;;;;-0.18;100.00;103480.88;5273966;28;20015;-71
2022/01/21 00:34:39;;;;;;;24.02;4.03;;;;;;;-0.10;100.00;103478.94;5267966;28;20036;-71
2022/01/21 00:37:10;;;;;;;26.42;3.70;;;;;;;-0.02;100.00;103482.28;5265209;28;20078;-72
2022/01/21 00:39:41;;;;;;;19.67;4.25;;;;;;;0.02;100.00;103480.44;5276359;28;20020;-72
2022/01/21 00:44:59;;;;;;;21.60;3.95;;;;;;;0.08;100.00;103478.53;5264478;28;20020;-72
2022/01/21 00:47:30;;;;;;;26.75;4.20;;;;;;;0.08;100.00;103475.88;5263262;28;20024;-72
2022/01/21 00:50:00;;;;;;;26.00;5.45;;;;;;;0.07;100.00;103473.31;5264310;28;20031;-71
2022/01/21 00:52:31;;;;;;;32.63;3.97;;;;;;;0.06;100.00;103477.72;5267999;28;20099;-70
2022/01/21 00:55:03;;;;;;;19.40;4.63;;;;;;;0.01;100.00;103476.94;5273284;28;20031;-71
2022/01/21 00:57:33;;;;;;;32.05;5.22;;;;;;;-0.04;100.00;103477.03;5277716;28;20532;-70
2022/01/21 01:00:07;;;;;;;19.70;5.15;;;;;;;-0.04;100.00;103476.19;5278372;28;20027;-71
2022/01/21 01:02:39;;;;;;;22.60;4.78;;;;;;;-0.14;100.00;103488.69;5270666;28;20066;-72
2022/01/21 01:05:12;;;;;;;27.58;5.70;;;;;;;-0.19;100.00;103489.69;5269930;28;20016;-71
2022/01/21 01:07:42;;;;;;;27.15;6.97;;;;;;;-0.17;100.00;103480.84;5269743;28;20027;-71
2022/01/21 01:10:21;;;;;;;26.67;5.70;;;;;;;-0.13;100.00;103487.78;5272456;28;20569;-71
2022/01/21 01:13:00;;;;;;;18.67;5.13;;;;;;;-0.05;100.00;103477.06;5273171;28;20070;-71
2022/01/21 01:21:08;;;;;;;21.75;6.15;;;;;;;0.21;100.00;103485.28;5276292;28;20019;-72
2022/01/21 01:24:01;;;;;;;27.13;6.95;;;;;;;0.21;100.00;103490.56;5264467;28;20597;-72
2022/01/21 01:29:20;;;;;;;27.33;6.40;;;;;;;0.33;100.00;103488.53;5269350;28;20028;-70
2022/01/21 01:31:52;;;;;;;25.95;5.78;;;;;;;0.34;100.00;103485.00;5273697;28;20031;-71
2022/01/21 01:34:23;;;;;;;22.63;6.47;;;;;;;0.34;100.00;103487.63;5268192;28;20040;-71
2022/01/21 01:36:58;;;;;;;36.40;6.60;;;;;;;0.32;100.00;103487.69;5273608;28;20023;-71
2022/01/21 01:39:35;;;;;;;22.08;6.45;;;;;;;0.31;100.00;103483.31;5270126;28;20053;-72
2022/01/21 01:50:35;;;;;;;26.58;6.50;;;;;;;0.30;100.00;103457.78;5268027;28;20111;-72
2022/01/21 01:53:07;;;;;;;17.55;6.40;;;;;;;0.28;100.00;103464.00;5262576;28;20081;-71
2022/01/21 01:55:38;;;;;;;20.08;5.38;;;;;;;0.16;100.00;103471.31;5264253;28;20579;-71
2022/01/21 01:58:12;;;;;;;18.70;6.30;;;;;;;0.07;100.00;103463.59;5263480;28;20020;-73
2022/01/21 02:00:43;;;;;;;26.95;6.38;;;;;;;0.00;100.00;103459.38;5276181;28;20103;-73
2022/01/21 02:03:15;;;;;;;24.77;6.25;;;;;;;-0.09;100.00;103459.56;5264300;28;20020;-71
2022/01/21 02:05:46;;;;;;;24.42;7.07;;;;;;;-0.14;100.00;103462.31;5265066;28;20726;-71
2022/01/21 02:08:17;;;;;;;27.38;6.68;;;;;;;-0.12;100.00;103452.59;5275115;28;20114;-72
2022/01/21 02:10:47;;;;;;;28.83;7.95;;;;;;;-0.12;100.00;103460.50;5266167;28;20036;-74
2022/01/21 02:13:29;;;;;;;20.42;6.93;;;;;;;-0.08;100.00;103458.66;5268745;28;20027;-71
2022/01/21 02:16:08;;;;;;;31.85;10.02;;;;;;;-0.05;100.00;103458.59;5267531;28;20020;-72
2022/01/21 02:21:32;;;;;;;20.65;6.93;;;;;;;0.13;100.00;103455.53;5268152;28;20085;-71
2022/01/21 02:24:34;;;;;;;23.42;8.90;;;;;;;0.22;100.00;103462.38;5268155;28;20405;-72
2022/01/21 02:27:04;;;;;;;24.08;6.60;;;;;;;0.41;100.00;103455.78;5283019;28;20106;-72
2022/01/21 02:29:44;;;;;;;25.98;6.55;;;;;;;0.48;100.00;103469.69;5286293;28;20110;-73
2022/01/21 02:32:16;;;;;;;21.08;5.80;;;;;;;0.60;100.00;103458.81;5285642;28;20031;-73
2022/01/21 02:34:47;;;;;;;23.77;6.20;;;;;;;0.63;100.00;103471.09;5285045;28;20385;-72
2022/01/21 02:37:20;;;;;;;25.83;6.40;;;;;;;0.66;100.00;103463.97;5286790;28;20484;-72
2022/01/21 02:39:52;;;;;;;18.85;5.88;;;;;;;0.67;100.00;103463.06;5285001;28;20035;-71
2022/01/21 02:42:23;;;;;;;29.02;6.90;;;;;;;0.72;100.00;103465.56;5286456;28;20024;-72
2022/01/21 02:44:54;;;;;;;23.17;6.05;;;;;;;0.75;100.00;103469.03;5285010;28;20079;-73
2022/01/21 02:47:26;;;;;;;19.35;5.47;;;;;;;0.77;100.00;103472.47;5286471;28;20242;-71
2022/01/21 02:49:57;;;;;;;21.95;6.60;;;;;;;0.81;100.00;103468.00;5283318;28;20011;-71
2022/01/21 02:52:31;;;;;;;24.42;6.47;;;;;;;0.83;100.00;103468.81;5278796;27;20458;-72
2022/01/21 02:55:01;;;;;;;22.45;5.43;;;;;;;0.87;100.00;103469.59;5268238;28;20027;-72
2022/01/21 02:57:32;;;;;;;19.23;5.70;;;;;;;0.92;100.00;103468.56;5274655;28;20147;-73
2022/01/21 03:00:05;;;;;;;24.95;6.95;;;;;;;0.89;100.00;103475.72;5278080;28;20476;-73
2022/01/21 03:02:36;;;;;;;26.25;5.10;;;;;;;0.87;100.00;103474.88;5275623;28;20031;-72
2022/01/21 03:05:13;;;;;;;21.20;5.30;;;;;;;0.88;100.00;103477.50;5274700;28;20107;-72
2022/01/21 03:07:44;;;;;;;15.88;5.28;;;;;;;0.92;100.00;103475.63;5279889;28;20363;-71
2022/01/21 03:10:26;;;;;;;20.67;4.80;;;;;;;0.89;100.00;103481.84;5271777;28;20034;-72
2022/01/21 03:12:57;;;;;;;18.58;4.82;;;;;;;0.83;100.00;103484.66;5276546;27;20069;-72
2022/01/21 03:15:27;;;;;;;25.40;5.28;;;;;;;0.78;100.00;103479.50;5272683;28;20464;-72
2022/01/21 03:18:02;;;;;;;23.70;5.15;;;;;;;0.71;100.00;103477.06;5274725;28;20401;-71
2022/01/21 03:20:33;;;;;;;27.75;7.53;;;;;;;0.64;100.00;103472.81;5271340;28;20027;-71
2022/01/21 03:23:04;;;;;;;27.48;5.20;;;;;;;0.60;100.00;103476.44;5272085;27;20494;-71
2022/01/21 03:25:34;;;;;;;19.77;5.28;;;;;;;0.61;100.00;103475.56;5270067;28;20382;-71
2022/01/21 03:28:05;;;;;;;29.80;5.47;;;;;;;0.64;100.00;103478.09;5279635;28;20055;-72
2022/01/21 03:30:35;;;;;;;17.50;4.93;;;;;;;0.66;100.00;103485.09;5281789;28;20054;-72
2022/01/21 03:33:06;;;;;;;23.55;5.28;;;;;;;0.69;100.00;103476.22;5280764;28;20027;-71
2022/01/21 03:35:37;;;;;;;24.60;5.10;;;;;;;0.69;100.00;103478.84;5280884;28;20480;-71
2022/01/21 03:38:08;;;;;;;20.40;4.72;;;;;;;0.62;100.00;103480.78;5282302;28;20477;-71
2022/01/21 03:40:38;;;;;;;16.40;4.72;;;;;;;0.57;100.00;103492.38;5279903;28;20024;-72
2022/01/21 03:43:12;;;;;;;24.50;4.88;;;;;;;0.51;100.00;103493.41;5283356;28;20059;-72
2022/01/21 03:45:42;;;;;;;18.92;5.05;;;;;;;0.43;100.00;103490.06;5278956;28;20020;-71
2022/01/21 03:48:13;;;;;;;28.45;5.00;;;;;;;0.35;100.00;103486.72;5283144;28;20031;-71
2022/01/21 03:50:44;;;;;;;25.17;5.57;;;;;;;0.25;100.00;103480.78;5270731;28;20095;-71
2022/01/21 03:53:14;;;;;;;19.70;5.53;;;;;;;0.16;100.00;103489.81;5273308;28;20062;-71
2022/01/21 03:55:46;;;;;;;26.00;5.68;;;;;;;0.17;100.00;103494.16;5275813;28;20811;-71
2022/01/21 03:58:16;;;;;;;17.45;4.40;;;;;;;0.17;100.00;103491.53;5265789;28;20362;-71
2022/01/21 04:00:51;;;;;;;19.60;4.55;;;;;;;0.13;100.00;103489.84;5266235;28;20031;-71
2022/01/21 04:03:23;;;;;;;24.70;4.68;;;;;;;0.14;100.00;103486.31;5265376;28;20273;-70
2022/01/21 04:05:54;;;;;;;19.25;4.90;;;;;;;0.17;100.00;103494.16;5265102;28;20035;-72
2022/01/21 04:08:24;;;;;;;22.85;6.00;;;;;;;0.13;100.00;103500.41;5276201;28;20028;-71
2022/01/21 04:10:55;;;;;;;16.60;4.65;;;;;;;0.09;100.00;103493.47;5265095;28;20448;-71
2022/01/21 04:13:27;;;;;;;19.60;4.57;;;;;;;-0.01;100.00;103487.50;5265144;28;20035;-71
2022/01/21 04:15:59;;;;;;;16.67;4.63;;;;;;;-0.09;100.00;103493.88;5264620;28;20389;-71
2022/01/21 04:18:32;;;;;;;20.77;5.15;;;;;;;-0.21;100.00;103497.63;5266203;28;20020;-71
2022/01/21 04:21:03;;;;;;;14.80;3.88;;;;;;;-0.28;100.00;103501.31;5264755;28;20039;-71
2022/01/21 04:23:33;;;;;;;17.25;4.47;;;;;;;-0.26;100.00;103503.00;5265860;28;20424;-71
2022/01/21 04:26:04;;;;;;;24.17;4.88;;;;;;;-0.30;100.00;103493.44;5264191;28;20028;-71
2022/01/21 04:28:34;;;;;;;23.20;4.90;;;;;;;-0.38;100.00;103492.72;5266486;28;20020;-73
2022/01/21 04:31:05;;;;;;;18.45;5.40;;;;;;;-0.39;100.00;103496.25;5280286;28;20027;-73
2022/01/21 04:33:36;;;;;;;16.10;4.38;;;;;;;-0.41;100.00;103489.25;5277962;28;20020;-73
2022/01/21 04:36:06;;;;;;;23.50;4.75;;;;;;;-0.43;100.00;103491.06;5279307;28;20027;-72
2022/01/21 04:38:38;;;;;;;15.35;5.65;;;;;;;-0.48;100.00;103495.56;5278332;28;20019;-73
2022/01/21 04:49:36;;;;;;;26.10;10.15;;;;;;;-0.62;100.00;103494.06;5275128;28;20024;-71
2022/01/21 04:52:07;;;;;;;23.63;6.78;;;;;;;-0.69;100.00;103495.09;5280207;27;20030;-73
2022/01/21 04:54:37;;;;;;;31.15;5.10;;;;;;;-0.77;100.00;103490.84;5269773;28;20393;-73
2022/01/21 04:57:08;;;;;;;60.90;29.02;;;;;;;-0.80;100.00;103500.56;5266999;28;20024;-72
2022/01/21 04:59:40;;;;;;;31.27;14.88;;;;;;;-0.75;100.00;103491.69;5270558;28;20490;-72
2022/01/21 05:02:11;;;;;;;35.83;11.07;;;;;;;-0.62;100.00;103490.56;5267088;28;20027;-72
2022/01/21 05:04:42;;;;;;;45.97;15.07;;;;;;;-0.40;100.00;103496.25;5270805;28;20072;-72
2022/01/21 05:07:15;;;;;;;28.70;12.73;;;;;;;-0.23;100.00;103494.16;5269388;28;20266;-72
2022/01/21 05:09:45;;;;;;;58.70;18.10;;;;;;;-0.03;100.00;103499.03;5267356;28;20512;-73
2022/01/21 05:12:21;;;;;;;35.97;8.68;;;;;;;0.15;100.00;103496.00;5268725;28;20024;-71
2022/01/21 05:17:48;;;;;;;36.60;15.40;;;;;;;0.43;100.00;103495.34;5267011;28;20463;-71
2022/01/21 05:20:19;;;;;;;49.85;19.95;;;;;;;0.56;100.00;103498.56;5265621;28;20023;-72
2022/01/21 05:22:49;;;;;;;44.42;20.40;;;;;;;0.66;100.00;103497.44;5270810;28;20039;-71
2022/01/21 05:25:20;;;;;;;28.90;6.72;;;;;;;0.74;100.00;103509.53;5270160;28;20386;-71
2022/01/21 05:27:53;;;;;;;21.95;9.20;;;;;;;0.80;100.00;103503.22;5266349;28;20042;-72
2022/01/21 05:30:24;;;;;;;27.77;5.88;;;;;;;0.92;100.00;103508.22;5279280;28;20027;-72
2022/01/21 05:32:55;;;;;;;22.98;7.07;;;;;;;1.00;100.00;103500.09;5275331;28;20538;-72
2022/01/21 05:35:25;;;;;;;21.30;6.25;;;;;;;1.12;100.00;103502.41;5277446;28;20546;-71
2022/01/21 05:37:56;;;;;;;68.95;28.10;;;;;;;1.19;100.00;103501.34;5276133;28;20430;-71
2022/01/21 05:40:27;;;;;;;20.55;8.05;;;;;;;1.28;100.00;103502.88;5275011;28;20024;-72
2022/01/21 05:42:58;;;;;;;21.67;5.65;;;;;;;1.29;100.00;103505.47;5277173;28;20015;-72
2022/01/21 05:48:17;;;;;;;26.17;7.10;;;;;;;1.28;100.00;103494.94;5271754;28;20454;-71
2022/01/21 05:50:48;;;;;;;18.88;4.65;;;;;;;1.33;100.00;103500.13;5280558;28;20047;-73
2022/01/21 05:53:18;;;;;;;24.85;4.57;;;;;;;1.33;100.00;103497.47;5275385;28;20027;-72
2022/01/21 05:55:49;;;;;;;17.90;4.47;;;;;;;1.31;100.00;103491.38;5281110;28;20031;-72
2022/01/21 05:58:19;;;;;;;20.25;4.28;;;;;;;1.24;100.00;103485.34;5282410;28;20033;-71
2022/01/21 06:00:50;;;;;;;17.02;4.03;;;;;;;1.15;100.00;103491.75;5283295;28;20031;-72
2022/01/21 06:03:20;;;;;;;26.45;4.40;;;;;;;1.07;100.00;103490.22;5280735;28;20028;-74
2022/01/21 06:05:51;;;;;;;15.73;3.90;;;;;;;1.01;100.00;103492.13;5283496;28;20012;-71
2022/01/21 06:08:21;;;;;;;19.90;4.95;;;;;;;0.94;100.00;103493.19;5284050;28;20086;-70
2022/01/21 06:10:52;;;;;;;23.80;6.28;;;;;;;0.83;100.00;103486.44;5275579;28;20027;-71
2022/01/21 06:13:22;;;;;;;10.60;4.55;;;;;;;0.69;100.00;103492.94;5279797;28;20039;-70
2022/01/21 06:15:55;;;;;;;22.50;4.30;;;;;;;0.55;100.00;103502.09;5282877;28;20051;-70
2022/01/21 06:18:26;;;;;;;16.45;4.97;;;;;;;0.40;100.00;103498.03;5279926;28;20447;-71
2022/01/21 06:20:57;;;;;;;21.27;5.03;;;;;;;0.27;100.00;103501.88;5278372;28;20531;-71
2022/01/21 06:23:28;;;;;;;19.85;5.00;;;;;;;0.15;100.00;103496.00;5272637;28;20074;-70
2022/01/21 06:25:58;;;;;;;18.67;4.88;;;;;;;0.06;100.00;103487.41;5277636;28;20016;-71
2022/01/21 06:28:29;;;;;;;23.58;6.40;;;;;;;0.01;100.00;103495.41;5275333;28;20020;-71
2022/01/21 06:31:01;;;;;;;24.85;8.88;;;;;;;-0.03;100.00;103501.66;5280851;28;20047;-71
2022/01/21 06:33:32;;;;;;;37.88;12.57;;;;;;;-0.05;100.00;103496.44;5285251;28;20027;-71
2022/01/21 06:36:02;;;;;;;34.47;10.85;;;;;;;-0.06;100.00;103497.31;5283763;28;20031;-70
2022/01/21 06:38:35;;;;;;;34.97;12.85;;;;;;;-0.08;100.00;103501.75;5285271;28;20063;-71
2022/01/21 06:41:06;;;;;;;33.70;11.77;;;;;;;-0.07;100.00;103506.13;5278485;28;20023;-71
2022/01/21 06:43:36;;;;;;;32.63;11.88;;;;;;;-0.07;100.00;103502.63;5277643;28;20093;-70
2022/01/21 06:46:09;;;;;;;30.70;11.40;;;;;;;-0.06;100.00;103507.00;5285252;28;20059;-71
2022/01/21 06:48:40;;;;;;;40.53;13.45;;;;;;;-0.10;100.00;103516.78;5271680;28;20114;-71
2022/01/21 06:51:10;;;;;;;37.08;9.38;;;;;;;-0.11;100.00;103515.00;5277577;28;20543;-70
2022/01/21 06:53:41;;;;;;;36.17;8.88;;;;;;;-0.10;100.00;103513.22;5278755;28;20024;-71
2022/01/21 06:56:13;;;;;;;21.00;8.32;;;;;;;-0.14;100.00;103522.13;5276430;28;20081;-71
2022/01/21 06:58:43;;;;;;;30.02;9.10;;;;;;;-0.16;100.00;103513.38;5267318;28;20030;-71
2022/01/21 07:01:14;;;;;;;39.17;11.05;;;;;;;-0.08;100.00;103522.00;5283949;28;20028;-71
2022/01/21 07:03:44;;;;;;;31.17;8.60;;;;;;;-0.06;100.00;103538.66;5282392;28;20499;-72
2022/01/21 07:06:15;;;;;;;24.10;9.23;;;;;;;-0.08;100.00;103537.84;5283894;28;20042;-71
2022/01/21 07:08:45;;;;;;;35.95;9.40;;;;;;;-0.14;100.00;103541.47;5279544;27;20082;-71
2022/01/21 07:11:16;;;;;;;31.52;10.50;;;;;;;-0.19;100.00;103548.63;5278051;28;20035;-71
2022/01/21 07:13:46;;;;;;;31.30;8.48;;;;;;;-0.24;100.00;103549.63;5281541;28;20028;-71
2022/01/21 07:16:17;;;;;;;32.83;8.82;;;;;;;-0.31;100.00;103554.13;5282246;28;20054;-71
2022/01/21 07:18:48;;;;;;;38.00;10.85;;;;;;;-0.30;100.00;103561.16;5278875;28;20020;-71
2022/01/21 07:21:18;;;;;;;30.88;9.57;;;;;;;-0.26;100.00;103565.44;5266327;28;20028;-71
2022/01/21 07:23:49;;;;;;;36.65;10.13;;;;;;;-0.17;100.00;103562.63;5282310;28;20016;-71
2022/01/21 07:26:19;;;;;;;28.25;9.23;;;;;;;-0.05;100.00;103572.97;5272016;28;20537;-74
2022/01/21 07:28:50;;;;;;;29.95;9.13;;;;;;;0.01;100.00;103571.09;5266141;28;20020;-71
2022/01/21 07:31:21;;;;;;;45.55;12.05;;;;;;;0.01;100.00;103568.47;5277066;28;20028;-71
2022/01/21 07:33:52;;;;;;;35.25;10.70;;;;;;;-0.03;100.00;103573.78;5282171;28;20102;-71
2022/01/21 07:36:22;;;;;;;32.55;10.18;;;;;;;-0.03;100.00;103576.44;5279084;28;20016;-71
2022/01/21 07:38:53;;;;;;;38.60;11.18;;;;;;;0.09;100.00;103571.78;5282001;28;20030;-71
2022/01/21 07:41:23;;;;;;;35.22;10.60;;;;;;;0.16;100.00;103566.38;5279378;28;20103;-71
2022/01/21 07:43:54;;;;;;;35.10;10.77;;;;;;;0.24;100.00;103574.09;5280352;28;20023;-71
2022/01/21 07:46:26;;;;;;;37.40;10.40;;;;;;;0.29;100.00;103571.38;5281124;28;20019;-71
2022/01/21 07:48:58;;;;;;;27.55;9.57;;;;;;;0.35;100.00;103572.13;5281651;28;20450;-71
2022/01/21 07:51:28;;;;;;;34.17;8.98;;;;;;;0.36;100.00;103571.22;5271794;28;20027;-71
2022/01/21 07:53:59;;;;;;;36.28;10.45;;;;;;;0.41;100.00;103573.75;5270318;28;20462;-71
2022/01/21 07:56:32;;;;;;;35.17;10.13;;;;;;;0.49;100.00;103577.06;5273154;28;20054;-71
2022/01/21 07:59:05;;;;;;;40.17;10.93;;;;;;;0.59;100.00;103583.03;5272596;28;20028;-71
2022/01/21 08:01:36;;;;;;;23.70;8.73;;;;;;;0.67;100.00;103589.00;5270868;28;20065;-72
2022/01/21 08:04:07;;;;;;;44.90;11.25;;;;;;;0.74;100.00;103591.47;5273945;28;20721;-72
2022/01/21 08:06:37;;;;;;;31.30;10.25;;;;;;;0.92;100.00;103591.94;5269587;28;20439;-71
2022/01/21 08:09:08;;;;;;;40.45;11.25;;;;;;;1.03;100.00;103585.47;5276200;28;20181;-72
2022/01/21 08:11:38;;;;;;;30.90;9.10;;;;;;;1.02;100.00;103586.41;5263646;28;20024;-72
2022/01/21 08:14:09;;;;;;;32.33;10.07;;;;;;;0.97;100.00;103583.00;5273722;28;20030;-72
2022/01/21 08:16:39;;;;;;;31.38;10.02;;;;;;;0.92;100.00;103590.16;5271007;28;20056;-71
2022/01/21 08:19:10;;;;;;;32.00;9.35;;;;;;;0.96;100.00;103596.25;5273645;28;20024;-72
2022/01/21 08:21:41;;;;;;;32.10;9.95;;;;;;;0.97;100.00;103598.00;5272219;28;20468;-72
2022/01/21 08:24:12;;;;;;;33.92;11.25;;;;;;;1.01;100.00;103605.81;5271618;28;20393;-71
2022/01/21 08:26:42;;;;;;;35.20;12.35;;;;;;;1.09;100.00;103592.38;5274084;28;20020;-71
2022/01/21 08:29:13;;;;;;;35.10;12.25;;;;;;;1.12;100.00;103592.31;5264308;28;20024;-71
2022/01/21 08:31:45;;;;;;;33.28;11.65;;;;;;;1.09;100.00;103602.97;5272095;28;20501;-72
2022/01/21 08:34:15;;;;;;;32.08;11.20;;;;;;;1.01;100.00;103584.66;5266655;28;20127;-72
2022/01/21 08:36:48;;;;;;;31.73;11.70;;;;;;;0.96;100.00;103588.31;5271383;28;20488;-72
2022/01/21 08:39:19;;;;;;;57.65;23.55;;;;;;;0.97;100.00;103590.06;5267162;28;20149;-71
2022/01/21 08:41:49;;;;;;;34.40;12.43;;;;;;;0.99;100.00;103575.88;5271528;28;20103;-72
2022/01/21 08:44:20;;;;;;;29.90;12.25;;;;;;;1.35;100.00;103577.63;5266219;28;20413;-71
2022/01/21 08:46:50;;;;;;;50.17;28.48;;;;;;;1.99;100.00;103575.88;5271703;28;20024;-72
2022/01/21 08:49:21;;;;;;;21.60;9.27;;;;;;;2.54;100.00;103574.22;5267338;28;20028;-72
2022/01/21 08:51:54;;;;;;;34.30;13.80;;;;;;;3.26;100.00;103570.09;5271366;28;20084;-72
2022/01/21 08:54:26;;;;;;;30.00;8.57;;;;;;;3.69;100.00;103557.09;5266995;28;20173;-73
2022/01/21 08:56:57;;;;;;;25.67;7.70;;;;;;;4.20;100.00;103554.28;5265983;28;20020;-73
2022/01/21 08:59:29;;;;;;;29.08;9.85;;;;;;;4.70;100.00;103564.72;5274654;28;20106;-73
2022/01/21 09:02:00;;;;;;;17.73;6.05;;;;;;;5.50;100.00;103559.56;5270445;28;20054;-74
2022/01/21 09:04:30;;;;;;;20.73;6.15;;;;;;;5.59;100.00;103558.31;5265324;28;20075;-73
2022/01/21 09:07:01;;;;;;;20.08;7.20;;;;;;;6.01;100.00;103568.00;5267123;28;20026;-73
2022/01/21 09:09:32;;;;;;;21.88;7.47;;;;;;;5.95;100.00;103564.69;5264612;28;20731;-73
2022/01/21 09:12:02;;;;;;;22.33;7.50;;;;;;;6.10;100.00;103567.56;5265753;28;20028;-73
2022/01/21 09:14:34;;;;;;;20.48;7.57;;;;;;;6.31;100.00;103566.56;5264765;28;20031;-73
2022/01/21 09:17:04;;;;;;;19.90;6.20;;;;;;;6.68;100.00;103579.03;5267336;28;20034;-73
2022/01/21 09:19:35;;;;;;;16.10;6.00;;;;;;;6.99;100.00;103580.19;5273077;28;20016;-73
2022/01/21 09:22:06;;;;;;;14.18;5.10;;;;;;;7.14;100.00;103589.25;5267522;28;20039;-73
2022/01/21 09:24:36;;;;;;;15.95;4.93;;;;;;;7.32;100.00;103587.44;5261766;28;20026;-73
2022/01/21 09:27:07;;;;;;;11.40;5.10;;;;;;;7.28;100.00;103589.41;5265721;28;20023;-73
2022/01/21 09:29:38;;;;;;;18.40;5.20;;;;;;;6.47;100.00;103593.38;5261862;28;20200;-73
2022/01/21 09:32:09;;;;;;;22.88;5.05;;;;;;;5.82;100.00;103590.09;5263117;28;20066;-73
2022/01/21 09:34:39;;;;;;;19.35;5.18;;;;;;;5.41;100.00;103587.47;5262050;28;20035;-73
2022/01/21 09:37:10;;;;;;;18.83;7.35;;;;;;;4.99;100.00;103587.47;5261861;28;20506;-73
2022/01/21 09:39:41;;;;;;;20.50;5.05;;;;;;;4.67;100.00;103587.00;5274651;28;20028;-73
2022/01/21 09:42:14;;;;;;;13.95;5.70;;;;;;;4.78;100.00;103591.03;5273572;28;20027;-73
2022/01/21 09:44:45;;;;;;;17.00;6.18;;;;;;;5.29;100.00;103589.78;5280661;28;20051;-73
2022/01/21 09:47:18;;;;;;;18.80;6.57;;;;;;;5.93;100.00;103576.34;5274424;28;20389;-72
2022/01/21 09:49:49;;;;;;;12.75;5.80;;;;;;;6.39;100.00;103572.41;5264383;28;20035;-73
2022/01/21 09:52:21;;;;;;;15.30;5.65;;;;;;;6.81;100.00;103575.75;5282968;28;20027;-73
2022/01/21 09:54:53;;;;;;;19.67;5.45;;;;;;;7.25;100.00;103582.41;5281891;28;20020;-73
2022/01/21 09:57:23;;;;;;;12.52;5.22;;;;;;;7.57;100.00;103574.53;5278301;28;20057;-72
2022/01/21 09:59:55;;;;;;;16.17;5.13;;;;;;;7.73;100.00;103579.94;5267705;28;20077;-73
2022/01/21 10:02:28;;;;;;;15.50;4.97;;;;;;;7.95;100.00;103591.22;5271320;28;20473;-72
2022/01/21 10:04:59;;;;;;;15.32;4.60;;;;;;;8.13;100.00;103597.38;5275552;28;20020;-73
2022/01/21 10:07:30;;;;;;;20.27;5.22;;;;;;;7.98;100.00;103599.09;5272414;28;20026;-73
2022/01/21 10:10:07;;;;;;;13.43;4.28;;;;;;;7.94;100.00;103602.00;5268678;28;20035;-73
2022/01/21 10:12:39;;;;;;;17.02;4.30;;;;;;;7.88;100.00;103603.19;5273512;28;20020;-73
2022/01/21 10:15:12;;;;;;;19.67;4.60;;;;;;;7.78;100.00;103594.81;5272908;28;20105;-73
2022/01/21 10:18:19;;;;;;;17.52;3.58;;;;;;;7.75;100.00;103599.44;5275461;28;20087;-73
2022/01/21 10:21:04;;;;;;;12.32;3.22;;;;;;;7.85;100.00;103611.38;5266939;28;20512;-73
2022/01/21 10:23:38;;;;;;;15.98;5.80;;;;;;;7.57;100.00;103611.94;5269810;28;20031;-73
2022/01/21 10:26:13;;;;;;;16.73;3.75;;;;;;;7.42;100.00;103618.06;5268623;28;20024;-73
2022/01/21 10:28:52;;;;;;;12.15;4.30;;;;;;;7.30;100.00;103619.56;5269370;28;20027;-72
2022/01/21 10:31:24;;;;;;;16.13;3.72;;;;;;;7.20;100.00;103616.47;5268900;28;20058;-73
2022/01/21 10:34:03;;;;;;;23.83;4.32;;;;;;;7.21;100.00;103628.88;5282950;28;20055;-73
2022/01/21 10:36:44;;;;;;;17.98;3.42;;;;;;;6.98;100.00;103622.03;5267325;27;20081;-73
2022/01/21 10:39:28;;;;;;;17.92;5.18;;;;;;;6.72;100.00;103630.41;5265607;28;20527;-73
2022/01/21 10:42:01;;;;;;;10.02;3.58;;;;;;;6.63;100.00;103621.06;5271024;28;20027;-73
2022/01/21 10:44:31;;;;;;;18.48;5.57;;;;;;;6.29;100.00;103627.13;5273799;28;20020;-73
2022/01/21 10:47:39;;;;;;;15.13;3.88;;;;;;;6.28;100.00;103635.19;5278312;28;20109;-73
2022/01/21 10:50:28;;;;;;;15.65;3.95;;;;;;;6.28;100.00;103630.72;5276163;28;20058;-73
2022/01/21 10:52:58;;;;;;;18.73;4.13;;;;;;;6.33;100.00;103617.19;5272400;28;20027;-73
2022/01/21 10:55:32;;;;;;;12.18;3.45;;;;;;;6.37;100.00;103619.59;5276547;28;20413;-73
2022/01/21 10:58:19;;;;;;;11.05;4.07;;;;;;;6.30;100.00;103622.63;5269107;28;20024;-72
2022/01/21 11:01:06;;;;;;;12.10;4.05;;;;;;;6.28;100.00;103620.06;5277041;28;20531;-73
2022/01/21 11:03:55;;;;;;;22.30;4.18;;;;;;;6.52;100.00;103612.69;5273046;28;20036;-73
2022/01/21 11:06:33;;;;;;;12.55;4.40;;;;;;;6.57;100.00;103612.47;5282619;28;20030;-73
2022/01/21 11:09:24;;;;;;;19.45;4.47;;;;;;;6.43;100.00;103606.00;5272155;28;20106;-73
2022/01/21 11:12:22;;;;;;;17.50;5.03;;;;;;;6.46;100.00;103607.66;5274675;28;20016;-73
2022/01/21 11:15:08;;;;;;;9.75;3.30;;;;;;;6.52;100.00;103607.34;5271327;28;20028;-72
2022/01/21 11:17:56;;;;;;;28.73;8.60;;;;;;;6.57;100.00;103604.47;5281897;28;20043;-73
2022/01/21 11:20:48;;;;;;;21.45;5.43;;;;;;;6.57;100.00;103592.00;5283160;28;20064;-73
2022/01/21 11:23:21;;;;;;;14.70;4.28;;;;;;;6.56;100.00;103597.41;5274521;28;20020;-72
2022/01/21 11:25:57;;;;;;;16.02;4.10;;;;;;;6.65;100.00;103595.19;5282171;27;20066;-73
2022/01/21 11:28:39;;;;;;;21.10;4.55;;;;;;;6.72;100.00;103588.59;5284079;28;20396;-73
2022/01/21 11:31:09;;;;;;;13.18;5.10;;;;;;;6.85;100.00;103594.22;5268426;28;20083;-73
2022/01/21 11:33:40;;;;;;;12.18;3.20;;;;;;;6.83;100.00;103581.88;5268310;28;20020;-73
2022/01/21 11:36:11;;;;;;;17.08;4.63;;;;;;;6.69;100.00;103593.22;5278507;28;20035;-73
2022/01/21 11:38:44;;;;;;;14.48;3.33;;;;;;;6.62;100.00;103586.44;5275864;27;20024;-73
2022/01/21 11:41:15;;;;;;;17.17;3.63;;;;;;;6.42;100.00;103579.38;5271308;28;20024;-73
2022/01/21 11:43:51;;;;;;;18.23;3.20;;;;;;;6.49;100.00;103580.84;5277460;28;20031;-73
2022/01/21 11:49:17;;;;;;;15.73;3.38;;;;;;;6.74;100.00;103570.72;5277658;28;20475;-73
2022/01/21 11:51:47;;;;;;;20.85;3.92;;;;;;;6.72;100.00;103577.91;5275033;28;20051;-76
2022/01/21 11:54:24;;;;;;;27.25;7.50;;;;;;;6.61;100.00;103571.38;5261789;28;20059;-73
2022/01/21 11:56:57;;;;;;;22.08;5.70;;;;;;;6.55;100.00;103559.22;5268536;28;20032;-73
2022/01/21 12:02:36;;;;;;;11.20;4.15;;;;;;;6.55;100.00;103550.34;5286689;27;20036;-73
2022/01/21 12:05:09;;;;;;;13.68;4.30;;;;;;;6.56;100.00;103557.41;5275387;27;20014;-73
2022/01/21 12:07:44;;;;;;;13.27;3.80;;;;;;;6.41;100.00;103554.53;5283615;28;20028;-74
2022/01/21 12:10:35;;;;;;;21.98;4.22;;;;;;;6.39;100.00;103545.75;5267088;28;20429;-73
2022/01/21 12:13:30;;;;;;;21.05;4.18;;;;;;;6.30;100.00;103546.19;5264978;28;20099;-73
2022/01/21 12:21:24;;;;;;;27.80;4.70;;;;;;;6.59;100.00;103547.47;5262951;28;20107;-74
2022/01/21 12:23:55;;;;;;;22.25;5.55;;;;;;;6.48;100.00;103545.31;5263540;28;20028;-74
2022/01/21 12:26:28;;;;;;;17.35;4.50;;;;;;;6.39;100.00;103545.75;5274408;28;20107;-73
2022/01/21 12:28:58;;;;;;;23.48;5.53;;;;;;;6.37;100.00;103544.94;5263423;28;20027;-74
2022/01/21 12:31:40;;;;;;;28.67;5.03;;;;;;;6.32;100.00;103554.09;5266597;28;20163;-73
2022/01/21 12:34:14;;;;;;;18.50;4.43;;;;;;;6.36;100.00;103545.88;5278456;28;20110;-74
2022/01/21 12:36:49;;;;;;;18.58;4.75;;;;;;;6.37;100.00;103544.94;5262187;28;20024;-74
2022/01/21 12:39:57;;;;;;;17.17;4.70;;;;;;;6.38;100.00;103538.69;5265816;28;20023;-73